Time;durP1;ratioP1;P1;durP2;ratioP2;P2;SDS_P1;SDS_P2;PMS_P1;PMS_P2;Temp;Humidity;BMP_temperature;BMP_pressure;BME280_temperature;BME280_humidity;BME280_pressure;Samples;Min_cycle;Max_cycle;Signal;HPM_P1;HPM_P2
2022/09/27 00:01:06;;;;;;;;;3.00;2.00;;;;;13.72;62.42;99607.34;5058726;28;45358;-66
2022/09/27 00:03:32;;;;;;;;;2.00;2.00;;;;;13.63;62.11;99596.44;5058123;28;46672;-65
2022/09/27 00:06:13;;;;;;;;;2.33;1.00;;;;;13.68;62.50;99602.25;5058404;28;45426;-64
2022/09/27 00:08:39;;;;;;;;;2.00;2.00;;;;;13.68;62.12;99602.25;5058603;28;45350;-64
2022/09/27 00:11:06;;;;;;;;;3.33;3.00;;;;;13.63;62.47;99607.00;5034119;28;45669;-64
2022/09/27 00:13:32;;;;;;;;;2.00;2.00;;;;;13.52;62.86;99600.72;5038383;28;45470;-64
2022/09/27 00:15:59;;;;;;;;;2.00;2.00;;;;;13.64;62.46;99605.19;5045205;28;45629;-65
2022/09/27 00:18:25;;;;;;;;;2.00;2.00;;;;;13.63;62.41;99611.44;5058079;28;45432;-64
2022/09/27 00:20:52;;;;;;;;;3.00;3.00;;;;;13.59;62.36;99602.84;5057971;28;45439;-64
2022/09/27 00:23:18;;;;;;;;;2.00;2.00;;;;;13.62;62.24;99591.22;5058152;28;46810;-64
2022/09/27 00:25:57;;;;;;;;;2.00;2.00;;;;;13.63;62.42;99596.44;5057952;28;45443;-64
2022/09/27 00:28:22;;;;;;;;;2.67;2.67;;;;;13.61;62.51;99598.31;5058023;28;45473;-64
2022/09/27 00:30:47;;;;;;;;;2.67;2.33;;;;;13.59;62.78;99594.06;5058482;28;45441;-65
2022/09/27 00:33:13;;;;;;;;;3.67;2.00;;;;;13.62;62.89;99610.59;5057529;28;45608;-64
2022/09/27 00:35:38;;;;;;;;;3.00;1.00;;;;;13.62;63.25;99617.63;5058088;28;45513;-65
2022/09/27 00:38:03;;;;;;;;;3.00;3.00;;;;;13.61;63.28;99626.53;5059005;28;45931;-64
2022/09/27 00:40:29;;;;;;;;;1.33;1.33;;;;;13.60;63.18;99627.47;5058256;28;45538;-65
2022/09/27 00:42:55;;;;;;;;;3.00;3.00;;;;;13.44;64.05;99612.59;5058006;28;46177;-64
2022/09/27 00:45:20;;;;;;;;;5.33;2.00;;;;;13.53;64.11;99624.38;5057278;28;45450;-64
2022/09/27 00:47:53;;;;;;;;;5.00;3.00;;;;;13.57;64.00;99623.25;5057524;28;45427;-63
2022/09/27 00:50:31;;;;;;;;;2.33;1.33;;;;;13.61;63.96;99634.44;5057951;28;45375;-64
2022/09/27 00:53:10;;;;;;;;;2.67;2.67;;;;;13.59;63.67;99633.69;5039601;28;48001;-64
2022/09/27 00:55:43;;;;;;;;;3.00;3.00;;;;;13.46;64.10;99634.47;5037830;28;45392;-65
2022/09/27 00:58:13;;;;;;;;;5.00;3.67;;;;;13.53;63.82;99645.50;5038304;28;45599;-65
2022/09/27 01:00:44;;;;;;;;;2.33;2.33;;;;;13.53;63.58;99642.84;5057346;28;45415;-65
2022/09/27 01:03:16;;;;;;;;;2.00;2.00;;;;;13.54;64.24;99638.41;5057827;28;46341;-64
2022/09/27 01:05:41;;;;;;;;;1.00;1.00;;;;;13.47;64.50;99644.09;5058081;28;45384;-65
2022/09/27 01:08:08;;;;;;;;;3.00;2.00;;;;;13.46;64.29;99654.78;5058004;28;45423;-64
2022/09/27 01:10:44;;;;;;;;;3.00;1.67;;;;;13.44;64.51;99644.28;5056525;28;45594;-64
2022/09/27 01:13:21;;;;;;;;;2.00;2.00;;;;;13.43;64.13;99639.97;5057697;28;45564;-65
2022/09/27 01:16:14;;;;;;;;;2.00;2.00;;;;;13.37;64.03;99642.13;5056336;28;45415;-64
2022/09/27 01:18:42;;;;;;;;;2.00;2.00;;;;;13.41;64.16;99649.78;5057674;28;45464;-64
2022/09/27 01:21:10;;;;;;;;;2.00;2.00;;;;;13.35;64.96;99651.94;5057711;28;45538;-65
2022/09/27 01:23:47;;;;;;;;;6.67;3.00;;;;;13.31;64.89;99643.34;5039002;28;46853;-65
2022/09/27 01:26:34;;;;;;;;;2.67;2.00;;;;;13.36;64.27;99646.56;5056402;28;45403;-64
2022/09/27 01:29:31;;;;;;;;;1.33;1.00;;;;;13.34;64.37;99647.59;5057179;28;45381;-64
2022/09/27 01:32:06;;;;;;;;;4.00;2.67;;;;;13.27;64.53;99652.41;5057277;28;45305;-65
2022/09/27 01:34:47;;;;;;;;;1.00;1.00;;;;;13.28;64.97;99648.00;5056611;28;45447;-64
2022/09/27 01:37:25;;;;;;;;;2.00;2.00;;;;;13.34;63.79;99642.31;5039629;28;45495;-65
2022/09/27 01:40:09;;;;;;;;;1.00;1.00;;;;;13.30;64.22;99651.34;5057502;28;45375;-64
2022/09/27 01:42:57;;;;;;;;;1.00;1.00;;;;;13.22;64.54;99655.31;5057270;28;45440;-64
2022/09/27 01:45:29;;;;;;;;;1.33;1.33;;;;;13.19;64.08;99650.22;5056298;28;45430;-65
2022/09/27 01:48:09;;;;;;;;;4.00;2.00;;;;;13.21;64.42;99652.75;5056627;28;45546;-64
2022/09/27 01:50:43;;;;;;;;;3.33;2.00;;;;;13.24;64.01;99648.16;5057122;28;45421;-65
2022/09/27 01:53:29;;;;;;;;;3.00;2.00;;;;;13.20;64.67;99645.78;5038988;28;45410;-65
2022/09/27 01:55:56;;;;;;;;;2.00;2.00;;;;;13.20;64.41;99645.78;5056971;28;45477;-64
2022/09/27 01:58:29;;;;;;;;;2.00;2.00;;;;;13.20;64.75;99651.06;5037858;28;45400;-64
2022/09/27 02:00:56;;;;;;;;;4.67;3.00;;;;;13.20;64.49;99646.63;5057018;28;45461;-65
2022/09/27 02:03:30;;;;;;;;;2.00;1.00;;;;;13.21;64.86;99647.47;5056948;28;45533;-64
2022/09/27 02:06:01;;;;;;;;;3.00;1.00;;;;;13.25;64.49;99654.28;5056910;28;46061;-64
2022/09/27 02:08:41;;;;;;;;;2.00;1.00;;;;;13.15;64.53;99655.78;5056139;28;45407;-64
2022/09/27 02:11:12;;;;;;;;;1.00;0.67;;;;;13.11;65.09;99654.25;5038579;28;45409;-63
2022/09/27 02:13:53;;;;;;;;;2.00;1.67;;;;;13.25;64.53;99656.91;5056773;28;45574;-65
2022/09/27 02:16:45;;;;;;;;;5.00;2.00;;;;;13.22;64.38;99646.53;5037719;28;48091;-64
2022/09/27 02:19:19;;;;;;;;;1.67;1.00;;;;;13.31;64.14;99655.72;5056322;28;45556;-64
2022/09/27 02:22:10;;;;;;;;;2.00;2.00;;;;;13.26;64.02;99642.78;5056755;28;45438;-64
2022/09/27 02:24:49;;;;;;;;;2.00;2.00;;;;;13.23;63.81;99635.03;5056436;28;45426;-64
2022/09/27 02:27:21;;;;;;;;;2.33;0.67;;;;;13.14;64.28;99633.81;5055839;28;45433;-64
2022/09/27 02:30:15;;;;;;;;;2.00;2.00;;;;;13.15;64.45;99630.22;5056344;28;45411;-65
2022/09/27 02:32:42;;;;;;;;;1.00;1.00;;;;;13.22;64.22;99635.97;5055658;28;45425;-64
2022/09/27 02:35:14;;;;;;;;;1.67;1.67;;;;;13.20;64.10;99640.50;5056151;28;45368;-64
2022/09/27 02:37:39;;;;;;;;;1.00;1.00;;;;;13.19;65.01;99638.78;5056872;28;45408;-64
2022/09/27 02:40:05;;;;;;;;;3.00;2.00;;;;;13.17;64.48;99638.06;5056373;28;45391;-65
2022/09/27 02:42:33;;;;;;;;;0.33;0.33;;;;;13.15;64.47;99651.34;5056107;28;45423;-63
2022/09/27 02:44:59;;;;;;;;;1.00;1.00;;;;;13.11;65.02;99647.22;5056189;28;46058;-65
2022/09/27 02:47:33;;;;;;;;;3.67;2.67;;;;;13.10;64.89;99642.84;5055941;28;45470;-64
2022/09/27 02:50:15;;;;;;;;;1.00;0.00;;;;;13.11;64.86;99652.47;5054259;28;45359;-64
2022/09/27 02:52:54;;;;;;;;;1.67;1.00;;;;;13.09;65.46;99649.09;5056093;28;45456;-64
2022/09/27 02:55:54;;;;;;;;;1.33;1.33;;;;;13.09;65.18;99651.72;5055813;28;46089;-64
2022/09/27 02:58:52;;;;;;;;;2.00;1.00;;;;;13.10;65.31;99647.28;5055563;28;45374;-63
2022/09/27 03:01:31;;;;;;;;;4.33;1.00;;;;;13.08;65.85;99646.53;5055576;28;45582;-64
2022/09/27 03:04:14;;;;;;;;;0.67;0.67;;;;;13.11;65.24;99644.56;5056115;28;45399;-65
2022/09/27 03:06:44;;;;;;;;;1.33;1.33;;;;;13.09;65.83;99645.59;5055929;28;45449;-65
2022/09/27 03:09:22;;;;;;;;;1.00;1.00;;;;;13.04;65.53;99638.78;5055128;28;46321;-65
2022/09/27 03:11:48;;;;;;;;;3.00;0.00;;;;;13.02;65.41;99638.03;5055230;28;45438;-64
2022/09/27 03:14:14;;;;;;;;;1.67;1.00;;;;;13.08;66.02;99639.44;5055835;28;45737;-64
2022/09/27 03:16:40;;;;;;;;;0.33;0.33;;;;;13.07;65.71;99635.13;5055655;28;45593;-64
2022/09/27 03:19:05;;;;;;;;;1.00;0.00;;;;;13.05;65.46;99639.63;5054237;28;45431;-65
2022/09/27 03:21:30;;;;;;;;;3.00;1.00;;;;;13.03;66.16;99631.81;5054937;28;45419;-64
2022/09/27 03:23:56;;;;;;;;;1.00;1.00;;;;;12.97;66.37;99632.19;5033270;28;45576;-64
2022/09/27 03:26:21;;;;;;;;;2.33;2.33;;;;;13.04;65.60;99637.94;5035594;28;45388;-64
2022/09/27 03:28:46;;;;;;;;;1.00;1.00;;;;;13.03;66.16;99631.00;5035408;28;46342;-64
2022/09/27 03:31:13;;;;;;;;;0.33;0.33;;;;;13.02;66.75;99627.47;5035403;28;45441;-63
2022/09/27 03:33:38;;;;;;;;;2.00;2.00;;;;;12.96;66.81;99627.84;5017685;28;45504;-63
2022/09/27 03:36:04;;;;;;;;;1.00;1.00;;;;;12.99;67.03;99640.03;5035602;28;45669;-64
2022/09/27 03:38:30;;;;;;;;;1.67;1.67;;;;;13.03;66.57;99638.91;5053259;28;45491;-64
2022/09/27 03:40:55;;;;;;;;;0.67;0.67;;;;;12.97;66.93;99642.72;5055217;28;45355;-64
2022/09/27 03:43:21;;;;;;;;;1.00;1.00;;;;;13.01;66.35;99632.88;5053937;28;45328;-64
2022/09/27 03:45:46;;;;;;;;;1.00;1.00;;;;;13.10;66.15;99647.28;5055496;28;45392;-64
2022/09/27 03:48:13;;;;;;;;;1.33;1.33;;;;;13.16;66.13;99645.09;5053911;28;46750;-64
2022/09/27 03:50:38;;;;;;;;;1.33;1.00;;;;;13.22;66.14;99639.47;5055608;28;45434;-64
2022/09/27 03:53:03;;;;;;;;;2.00;2.00;;;;;13.23;66.64;99640.31;5055388;28;45460;-64
2022/09/27 03:55:29;;;;;;;;;3.00;2.00;;;;;13.20;66.02;99636.06;5055315;28;45469;-64
2022/09/27 03:57:54;;;;;;;;;1.67;1.67;;;;;13.23;66.21;99635.88;5054357;28;45580;-64
2022/09/27 04:00:20;;;;;;;;;1.00;1.00;;;;;13.19;66.00;99636.16;5055166;28;45430;-64
2022/09/27 04:02:46;;;;;;;;;1.00;1.00;;;;;13.24;65.98;99634.94;5057753;28;45443;-63
2022/09/27 04:05:11;;;;;;;;;1.00;1.00;;;;;13.28;65.71;99638.28;5058659;28;45474;-64
2022/09/27 04:07:36;;;;;;;;;1.00;1.00;;;;;13.27;65.54;99633.91;5057350;28;48277;-64
2022/09/27 04:10:03;;;;;;;;;1.00;1.00;;;;;13.31;65.29;99632.78;5058549;28;45470;-64
2022/09/27 04:12:29;;;;;;;;;1.33;1.33;;;;;13.26;65.60;99622.50;5057942;28;45556;-64
2022/09/27 04:14:54;;;;;;;;;2.00;2.00;;;;;13.19;65.76;99622.94;5057193;28;45385;-65
2022/09/27 04:17:19;;;;;;;;;2.33;2.00;;;;;13.22;66.03;99628.06;5058062;28;45442;-66
2022/09/27 04:19:45;;;;;;;;;1.33;1.33;;;;;13.09;65.97;99629.75;5058403;28;45477;-64
2022/09/27 04:22:10;;;;;;;;;1.67;1.67;;;;;12.99;66.13;99603.06;5055887;28;47999;-64
2022/09/27 04:24:35;;;;;;;;;1.00;1.00;;;;;12.99;66.52;99606.53;5058162;28;45563;-64
2022/09/27 04:27:01;;;;;;;;;1.33;1.33;;;;;13.08;66.72;99625.41;5058183;28;45466;-65
2022/09/27 04:29:27;;;;;;;;;1.00;1.00;;;;;13.12;66.75;99619.00;5058176;28;45419;-64
2022/09/27 04:31:52;;;;;;;;;4.00;2.00;;;;;13.14;66.38;99628.53;5057710;28;45402;-64
2022/09/27 04:36:25;;;;;;;;;1.00;1.00;;;;;13.16;66.04;99623.13;5058126;28;45462;-64
2022/09/27 04:37:03;;;;;;;;;0.67;0.67;;;;;13.15;66.03;99617.00;5058482;28;45442;-64
2022/09/27 04:39:28;;;;;;;;;2.00;2.00;;;;;13.12;65.45;99611.94;5058139;28;45520;-64
2022/09/27 04:41:54;;;;;;;;;2.00;1.00;;;;;13.10;65.96;99618.25;5058236;28;45421;-64
2022/09/27 04:44:19;;;;;;;;;2.00;0.00;;;;;13.03;66.52;99618.63;5056876;28;45422;-65
2022/09/27 04:46:44;;;;;;;;;1.00;1.00;;;;;12.97;65.93;99618.97;5055529;28;50642;-64
2022/09/27 04:49:10;;;;;;;;;0.33;0.33;;;;;13.01;66.38;99619.66;5057981;28;45449;-64
2022/09/27 04:51:35;;;;;;;;;0.00;0.00;;;;;13.00;66.15;99610.91;5058238;28;45374;-64
2022/09/27 04:54:00;;;;;;;;;0.67;0.67;;;;;13.04;66.50;99615.03;5058150;28;45422;-64
2022/09/27 04:56:26;;;;;;;;;2.00;1.00;;;;;13.05;66.30;99614.09;5057283;28;45391;-64
2022/09/27 04:58:51;;;;;;;;;2.00;1.67;;;;;13.12;65.83;99613.72;5056972;28;45380;-65
2022/09/27 05:01:16;;;;;;;;;0.00;0.00;;;;;13.14;65.66;99619.78;5057338;28;45419;-65
2022/09/27 05:03:42;;;;;;;;;1.00;1.00;;;;;13.12;66.03;99611.09;5057985;28;45590;-65
2022/09/27 05:06:07;;;;;;;;;1.67;1.67;;;;;13.10;66.51;99605.03;5057062;28;45564;-64
2022/09/27 05:08:32;;;;;;;;;1.67;1.67;;;;;13.10;66.47;99615.59;5055732;28;45459;-64
2022/09/27 05:10:58;;;;;;;;;0.67;0.67;;;;;13.06;66.37;99617.59;5041250;28;45367;-64
2022/09/27 05:13:23;;;;;;;;;2.00;2.00;;;;;13.14;66.43;99611.84;5039526;28;45392;-64
2022/09/27 05:15:48;;;;;;;;;2.00;2.00;;;;;13.19;65.92;99609.75;5046873;28;45427;-65
2022/09/27 05:18:14;;;;;;;;;1.00;1.00;;;;;13.21;65.58;99616.63;5037171;28;45493;-65
2022/09/27 05:20:39;;;;;;;;;1.00;1.00;;;;;13.13;66.61;99612.78;5018919;28;48716;-65
2022/09/27 05:23:05;;;;;;;;;2.00;1.00;;;;;13.15;66.30;99632.00;5037251;28;45576;-64
2022/09/27 05:25:31;;;;;;;;;2.67;1.00;;;;;13.12;66.56;99619.84;5039309;28;46265;-64
2022/09/27 05:27:57;;;;;;;;;3.00;1.00;;;;;13.21;66.72;99629.81;5057017;28;45611;-64
2022/09/27 05:30:24;;;;;;;;;4.00;1.00;;;;;13.12;68.29;99627.78;5045367;28;45467;-64
2022/09/27 05:32:50;;;;;;;;;2.00;2.00;;;;;13.07;68.00;99629.00;5047358;28;45395;-67
2022/09/27 05:35:18;;;;;;;;;3.00;2.00;;;;;13.14;67.55;99625.03;5057097;28;46093;-67
2022/09/27 05:37:50;;;;;;;;;1.00;1.00;;;;;13.24;67.16;99632.31;5057688;28;45419;-68
2022/09/27 05:40:15;;;;;;;;;2.67;2.00;;;;;13.26;67.20;99629.59;5057210;28;45426;-67
2022/09/27 05:42:40;;;;;;;;;1.33;1.33;;;;;13.24;67.87;99628.78;5057089;28;45499;-67
2022/09/27 05:45:06;;;;;;;;;3.00;3.00;;;;;13.25;67.39;99633.16;5037015;28;47426;-67
2022/09/27 05:47:31;;;;;;;;;1.00;1.00;;;;;13.25;67.48;99633.16;5056904;28;45407;-67
2022/09/27 05:49:57;;;;;;;;;1.00;1.00;;;;;13.21;67.76;99632.47;5056669;28;45380;-67
2022/09/27 05:52:22;;;;;;;;;3.00;2.00;;;;;13.26;67.70;99630.44;5052771;28;45891;-65
2022/09/27 05:54:47;;;;;;;;;1.00;1.00;;;;;13.24;67.45;99629.66;5036362;28;45525;-69
2022/09/27 05:57:13;;;;;;;;;2.33;2.00;;;;;13.19;67.47;99618.53;5036485;28;45399;-67
2022/09/27 05:59:40;;;;;;;;;2.00;2.00;;;;;13.20;66.66;99622.88;5045666;28;45451;-69
2022/09/27 06:02:05;;;;;;;;;3.00;3.00;;;;;13.26;67.01;99627.78;5052340;28;45375;-66
2022/09/27 06:04:30;;;;;;;;;2.67;1.00;;;;;13.29;67.02;99628.53;5042068;28;45317;-68
2022/09/27 06:06:57;;;;;;;;;2.00;2.00;;;;;13.21;67.09;99607.88;5049798;28;45490;-70
2022/09/27 06:09:23;;;;;;;;;1.67;1.00;;;;;13.28;66.70;99622.44;5056576;28;45565;-66
2022/09/27 06:11:49;;;;;;;;;2.00;2.00;;;;;13.22;67.28;99609.56;5044393;28;45396;-69
2022/09/27 06:14:15;;;;;;;;;2.33;2.33;;;;;13.25;66.18;99615.50;5036358;28;45554;-70
2022/09/27 06:16:40;;;;;;;;;2.00;2.00;;;;;13.22;66.96;99617.50;5036111;28;45554;-66
2022/09/27 06:19:06;;;;;;;;;1.33;1.33;;;;;13.20;67.12;99616.75;5036714;28;45467;-67
2022/09/27 06:21:31;;;;;;;;;1.00;1.00;;;;;13.20;67.10;99622.03;5040738;28;45447;-69
2022/09/27 06:23:58;;;;;;;;;2.00;2.00;;;;;13.25;66.71;99622.59;5049903;28;46361;-64
2022/09/27 06:26:26;;;;;;;;;2.00;2.00;;;;;13.21;66.75;99626.34;5056884;28;45500;-62
2022/09/27 06:28:52;;;;;;;;;4.67;1.33;;;;;13.22;66.80;99622.78;5056851;28;45275;-60
2022/09/27 06:31:17;;;;;;;;;2.00;2.00;;;;;13.28;65.92;99633.00;5056614;28;45320;-62
2022/09/27 06:33:44;;;;;;;;;2.33;2.33;;;;;13.22;67.52;99623.63;5055594;28;45328;-59
2022/09/27 06:36:10;;;;;;;;;3.00;2.00;;;;;13.19;66.98;99613.25;5056692;28;45314;-63
2022/09/27 06:38:35;;;;;;;;;1.00;1.00;;;;;13.22;66.96;99628.06;5057239;28;45323;-62
2022/09/27 06:41:02;;;;;;;;;4.00;3.00;;;;;13.19;67.41;99618.53;5038661;28;45342;-61
2022/09/27 06:43:29;;;;;;;;;3.00;3.00;;;;;13.28;67.12;99618.94;5038087;28;46917;-62
2022/09/27 06:45:54;;;;;;;;;2.33;2.33;;;;;13.30;67.38;99632.88;5055430;28;45550;-64
2022/09/27 06:48:20;;;;;;;;;2.00;2.00;;;;;13.27;67.54;99623.34;5056325;28;45443;-63
2022/09/27 06:50:47;;;;;;;;;3.33;3.00;;;;;13.28;66.83;99621.59;5056254;28;45610;-60
2022/09/27 06:53:14;;;;;;;;;6.00;4.00;;;;;13.22;66.86;99612.22;5056131;28;47536;-63
2022/09/27 06:55:40;;;;;;;;;2.67;2.67;;;;;13.27;66.71;99628.63;5056186;28;45338;-63
2022/09/27 07:00:52;;;;;;;;;3.00;2.00;;;;;13.25;66.69;99619.94;5056395;28;45253;-63
2022/09/27 07:03:19;;;;;;;;;3.00;3.00;;;;;13.18;66.70;99615.97;5056086;28;46078;-60
2022/09/27 07:05:57;;;;;;;;;3.00;3.00;;;;;13.27;66.88;99628.63;5055704;28;45219;-62
2022/09/27 07:08:25;;;;;;;;;3.33;2.33;;;;;13.32;66.47;99634.47;5056340;28;45357;-62
2022/09/27 07:10:51;;;;;;;;;4.00;2.67;;;;;13.33;66.87;99643.28;5055989;28;45268;-62
2022/09/27 07:13:17;;;;;;;;;1.33;1.33;;;;;13.25;66.46;99639.28;5056007;28;45929;-63
2022/09/27 07:15:43;;;;;;;;;2.00;2.00;;;;;13.26;66.28;99638.34;5055906;28;45545;-61
2022/09/27 07:18:08;;;;;;;;;2.00;2.00;;;;;13.30;66.74;99638.16;5055927;28;45226;-61
2022/09/27 07:20:37;;;;;;;;;3.67;3.00;;;;;13.37;66.36;99647.41;5055312;28;45486;-63
2022/09/27 07:23:04;;;;;;;;;4.33;4.33;;;;;13.36;66.39;99661.56;5055284;28;45622;-63
2022/09/27 07:25:31;;;;;;;;;2.00;2.00;;;;;13.37;66.74;99652.69;5055901;28;45463;-63
2022/09/27 07:28:01;;;;;;;;;3.33;2.00;;;;;13.43;66.18;99647.88;5055663;28;45463;-60
2022/09/27 07:30:27;;;;;;;;;3.67;3.67;;;;;13.45;66.63;99659.19;5055621;28;45399;-64
2022/09/27 07:33:00;;;;;;;;;3.00;3.00;;;;;13.34;66.45;99656.38;5055702;28;46182;-62
2022/09/27 07:35:26;;;;;;;;;2.33;2.33;;;;;13.39;66.57;99664.00;5055138;28;45461;-60
2022/09/27 07:37:52;;;;;;;;;3.00;3.00;;;;;13.45;66.16;99671.53;5059339;28;45438;-61
2022/09/27 07:40:18;;;;;;;;;3.67;2.33;;;;;13.43;66.24;99668.16;5059289;28;45385;-60
2022/09/27 07:42:44;;;;;;;;;2.00;2.00;;;;;13.43;66.71;99670.78;5059156;28;45491;-61
2022/09/27 07:45:10;;;;;;;;;4.00;4.00;;;;;13.43;66.52;99669.03;5058350;28;45569;-63
2022/09/27 07:47:40;;;;;;;;;3.00;3.00;;;;;13.47;66.76;99670.50;5041223;28;45431;-61
2022/09/27 07:50:11;;;;;;;;;4.00;2.00;;;;;13.56;65.89;99678.81;5059051;28;45441;-62
2022/09/27 07:52:40;;;;;;;;;3.33;3.00;;;;;13.60;66.61;99690.88;5058717;28;46305;-60
2022/09/27 07:55:07;;;;;;;;;3.00;1.00;;;;;13.60;65.79;99685.59;5058949;28;45390;-62
2022/09/27 07:57:33;;;;;;;;;3.67;2.33;;;;;13.58;66.32;99687.50;5059041;28;45418;-62
2022/09/27 07:59:58;;;;;;;;;5.00;3.67;;;;;13.60;65.64;99696.19;5058457;28;45435;-63
2022/09/27 08:02:24;;;;;;;;;4.00;4.00;;;;;13.61;66.38;99698.69;5058463;28;45499;-63
2022/09/27 08:04:50;;;;;;;;;3.00;3.00;;;;;13.61;65.71;99708.44;5058890;28;45399;-60
2022/09/27 08:07:15;;;;;;;;;2.00;2.00;;;;;13.65;65.52;99707.31;5058882;28;45402;-62
2022/09/27 08:09:41;;;;;;;;;3.33;2.00;;;;;13.62;65.58;99686.34;5058409;28;45515;-63
2022/09/27 08:12:06;;;;;;;;;0.00;0.00;;;;;13.67;65.83;99702.75;5040177;28;45334;-62
2022/09/27 08:14:32;;;;;;;;;2.00;2.00;;;;;13.73;65.98;99710.31;5057891;28;45402;-62
2022/09/27 08:16:57;;;;;;;;;1.00;1.00;;;;;13.67;65.90;99713.31;5058845;28;45368;-60
2022/09/27 08:19:23;;;;;;;;;2.67;2.00;;;;;13.70;65.73;99708.72;5058240;28;45427;-62
2022/09/27 08:21:51;;;;;;;;;3.00;3.00;;;;;13.74;65.45;99708.53;5057934;28;46317;-60
2022/09/27 08:24:16;;;;;;;;;2.67;1.00;;;;;13.75;65.19;99710.22;5058235;28;45384;-59
2022/09/27 08:26:41;;;;;;;;;2.00;1.00;;;;;13.75;65.14;99705.75;5058577;28;45799;-60
2022/09/27 08:29:07;;;;;;;;;2.33;1.00;;;;;13.69;65.70;99711.44;5058354;28;45269;-61
2022/09/27 08:31:32;;;;;;;;;3.67;2.33;;;;;13.77;65.57;99716.25;5040431;28;46424;-59
2022/09/27 08:33:57;;;;;;;;;4.67;0.67;;;;;13.80;65.07;99718.69;5058346;28;45252;-60
2022/09/27 08:36:23;;;;;;;;;2.33;1.33;;;;;13.84;65.16;99720.22;5058280;28;45332;-61
2022/09/27 08:38:50;;;;;;;;;4.00;2.33;;;;;13.86;64.98;99724.47;5059061;28;45324;-59
2022/09/27 08:41:24;;;;;;;;;4.00;1.33;;;;;13.89;64.38;99729.56;5057891;28;46555;-60
2022/09/27 08:43:55;;;;;;;;;1.00;1.00;;;;;13.91;64.06;99726.78;5058178;28;45391;-61
2022/09/27 08:46:36;;;;;;;;;3.00;2.00;;;;;13.87;64.32;99726.16;5058232;28;45281;-60
2022/09/27 08:49:13;;;;;;;;;1.00;1.00;;;;;13.90;64.15;99733.88;5057003;28;45405;-61
2022/09/27 08:51:43;;;;;;;;;4.33;3.00;;;;;13.87;63.15;99742.00;5057707;28;45344;-63
2022/09/27 08:54:37;;;;;;;;;3.33;3.00;;;;;13.89;63.97;99736.63;5057781;28;45396;-60
2022/09/27 08:57:08;;;;;;;;;4.67;3.33;;;;;13.97;64.23;99737.00;5055398;28;45422;-61
2022/09/27 08:59:41;;;;;;;;;3.67;3.00;;;;;14.03;63.74;99741.06;5057968;28;45530;-63
2022/09/27 09:02:33;;;;;;;;;1.33;1.33;;;;;14.03;64.10;99728.69;5057816;28;46246;-61
2022/09/27 09:05:08;;;;;;;;;2.00;2.00;;;;;14.09;64.20;99738.00;5055175;28;45536;-62
2022/09/27 09:08:05;;;;;;;;;2.00;2.00;;;;;14.08;64.67;99728.41;5057866;28;45258;-60
2022/09/27 09:13:54;;;;;;;;;3.00;2.00;;;;;14.16;63.55;99739.31;5057775;28;45386;-62
2022/09/27 09:16:22;;;;;;;;;4.00;4.00;;;;;14.19;63.63;99730.34;5057475;28;45494;-62
2022/09/27 09:19:03;;;;;;;;;1.67;1.67;;;;;14.15;63.64;99742.91;5057779;28;45272;-62
2022/09/27 09:21:44;;;;;;;;;2.00;2.00;;;;;14.11;63.34;99736.13;5057523;28;45413;-64
2022/09/27 09:24:17;;;;;;;;;3.00;2.00;;;;;14.12;62.70;99722.78;5056436;28;45455;-62
2022/09/27 09:26:46;;;;;;;;;4.00;3.00;;;;;14.13;63.57;99732.44;5057440;28;45378;-63
2022/09/27 09:29:17;;;;;;;;;2.67;2.67;;;;;14.14;62.65;99722.69;5039325;28;45258;-61
2022/09/27 09:32:18;;;;;;;;;2.33;2.00;;;;;14.15;62.74;99716.44;5057506;28;45457;-61
2022/09/27 09:34:58;;;;;;;;;2.00;2.00;;;;;14.16;63.13;99720.81;5057160;28;45358;-59
2022/09/27 09:37:37;;;;;;;;;0.67;0.67;;;;;14.13;61.16;99713.06;5057581;28;45375;-61
2022/09/27 09:40:46;;;;;;;;;2.67;2.00;;;;;14.17;62.26;99713.72;5057633;28;45374;-63
2022/09/27 09:43:20;;;;;;;;;2.00;2.00;;;;;14.17;62.49;99711.09;4995268;28;45482;-64
2022/09/27 09:45:55;;;;;;;;;1.33;1.33;;;;;14.11;61.56;99697.31;5050955;28;46537;-61
2022/09/27 09:48:33;;;;;;;;;2.00;2.00;;;;;14.12;62.26;99688.41;5057286;28;45402;-60
2022/09/27 09:51:04;;;;;;;;;1.33;1.00;;;;;14.16;62.13;99686.44;5057216;28;45311;-59
2022/09/27 09:53:38;;;;;;;;;3.00;1.00;;;;;14.31;61.49;99693.34;5057007;28;45533;-61
2022/09/27 09:56:31;;;;;;;;;3.00;2.00;;;;;14.45;61.79;99688.94;5056943;28;45377;-61
2022/09/27 09:59:03;;;;;;;;;1.00;1.00;;;;;14.61;61.29;99684.38;5056700;28;45522;-62
2022/09/27 10:01:36;;;;;;;;;2.00;2.00;;;;;14.74;60.92;99685.25;5056967;28;45391;-61
2022/09/27 10:04:02;;;;;;;;;4.67;3.33;;;;;14.74;61.09;99663.22;5038948;28;45261;-63
2022/09/27 10:06:30;;;;;;;;;3.67;3.33;;;;;14.87;60.09;99673.84;5056618;28;45649;-62
2022/09/27 10:08:55;;;;;;;;;2.00;2.00;;;;;14.88;59.86;99662.28;5056259;28;45440;-62
2022/09/27 10:11:31;;;;;;;;;2.00;2.00;;;;;14.93;59.69;99663.66;5056799;28;45478;-63
2022/09/27 10:13:56;;;;;;;;;0.67;0.33;;;;;14.91;59.88;99662.06;5057047;28;45519;-64
2022/09/27 10:16:25;;;;;;;;;2.00;1.00;;;;;14.91;59.11;99670.00;5056389;28;45403;-61
2022/09/27 10:18:56;;;;;;;;;3.33;2.00;;;;;14.93;58.24;99650.44;5056447;28;45385;-60
2022/09/27 10:21:26;;;;;;;;;2.00;2.00;;;;;14.96;57.54;99654.66;5056510;28;45527;-62
2022/09/27 10:24:14;;;;;;;;;0.33;0.33;;;;;14.96;58.10;99655.53;5056565;28;45437;-63
2022/09/27 10:26:42;;;;;;;;;1.00;1.00;;;;;15.01;59.30;99663.16;5056430;28;45225;-61
2022/09/27 10:29:24;;;;;;;;;5.00;3.33;;;;;15.04;58.11;99657.63;5056276;28;45246;-63
2022/09/27 10:31:51;;;;;;;;;3.33;3.33;;;;;15.05;58.04;99655.88;5055925;28;45290;-61
2022/09/27 10:34:29;;;;;;;;;2.33;2.33;;;;;14.99;58.62;99646.50;5056284;28;45169;-61
2022/09/27 10:37:16;;;;;;;;;1.00;1.00;;;;;14.91;58.31;99640.91;5056043;28;46206;-62
2022/09/27 10:39:46;;;;;;;;;2.00;2.00;;;;;15.00;60.23;99661.47;5056719;28;45233;-62
2022/09/27 10:42:36;;;;;;;;;1.67;1.67;;;;;14.93;60.01;99679.56;5056003;28;45304;-64
2022/09/27 10:45:20;;;;;;;;;3.00;3.00;;;;;14.73;62.70;99667.69;5056434;28;45554;-60
2022/09/27 10:47:46;;;;;;;;;2.67;2.33;;;;;14.67;63.58;99662.81;5055956;28;46133;-63
2022/09/27 10:50:20;;;;;;;;;3.67;3.00;;;;;14.55;63.92;99682.16;5056115;28;45260;-60
2022/09/27 10:52:46;;;;;;;;;3.00;3.00;;;;;14.43;64.03;99689.06;5056400;28;45465;-62
2022/09/27 10:55:24;;;;;;;;;2.67;2.33;;;;;14.31;65.76;99698.63;5056065;28;45411;-63
2022/09/27 10:57:53;;;;;;;;;2.00;1.00;;;;;14.31;64.57;99688.06;5055381;28;45356;-62
2022/09/27 11:00:21;;;;;;;;;1.00;1.00;;;;;14.26;65.88;99689.31;5054683;28;45599;-62
2022/09/27 11:03:00;;;;;;;;;1.67;1.00;;;;;14.15;65.13;99687.38;5055235;28;45350;-61
2022/09/27 11:05:26;;;;;;;;;1.33;1.33;;;;;14.19;65.11;99696.81;5047196;28;45399;-63
2022/09/27 11:07:57;;;;;;;;;2.00;2.00;;;;;14.05;65.30;99681.84;5036728;28;45300;-60
2022/09/27 11:10:27;;;;;;;;;2.33;2.00;;;;;14.10;66.33;99692.09;5053367;28;45349;-61
2022/09/27 11:13:13;;;;;;;;;1.67;1.67;;;;;14.05;64.77;99680.97;5054493;28;45354;-61
2022/09/27 11:15:56;;;;;;;;;3.33;2.00;;;;;14.05;66.18;99684.50;5055086;28;45426;-63
2022/09/27 11:18:28;;;;;;;;;4.67;2.00;;;;;14.07;65.57;99685.22;5036812;28;47648;-62
2022/09/27 11:21:24;;;;;;;;;2.00;2.00;;;;;14.05;65.11;99673.03;5053255;28;45526;-63
2022/09/27 11:24:06;;;;;;;;;2.67;2.67;;;;;14.08;64.88;99670.22;5056167;28;45177;-61
2022/09/27 11:27:14;;;;;;;;;2.00;2.00;;;;;14.14;65.23;99670.66;5056060;28;45363;-59
2022/09/27 11:29:58;;;;;;;;;5.00;4.00;;;;;14.22;64.22;99678.09;4973808;28;46011;-63
2022/09/27 11:33:00;;;;;;;;;2.67;2.67;;;;;14.10;63.40;99678.88;4973788;28;45437;-61
2022/09/27 11:35:40;;;;;;;;;2.00;2.00;;;;;14.05;64.38;99678.31;5008958;28;45388;-62
2022/09/27 11:38:15;;;;;;;;;2.33;2.33;;;;;14.00;64.59;99683.94;5036560;28;45455;-60
2022/09/27 11:40:49;;;;;;;;;1.33;1.33;;;;;13.92;65.09;99686.22;5048341;28;46018;-61
2022/09/27 11:43:28;;;;;;;;;0.67;0.67;;;;;13.89;65.25;99678.50;5048350;28;45447;-60
2022/09/27 11:46:09;;;;;;;;;2.67;2.33;;;;;13.84;65.07;99670.84;5038515;28;45431;-61
2022/09/27 11:49:06;;;;;;;;;3.67;3.00;;;;;13.84;65.27;99684.06;5037109;28;45389;-60
2022/09/27 11:52:00;;;;;;;;;1.67;1.67;;;;;13.82;65.02;99664.81;5034417;28;45336;-59
2022/09/27 11:54:50;;;;;;;;;2.00;1.00;;;;;13.88;63.95;99656.47;5051717;28;45317;-59
2022/09/27 11:57:25;;;;;;;;;4.00;4.00;;;;;13.91;64.87;99648.34;5051651;28;45457;-60
2022/09/27 11:59:58;;;;;;;;;1.67;1.33;;;;;13.91;65.16;99643.06;5031327;28;45531;-60